sensor_id;sensor_type;location;lat;lon;timestamp;pressure;altitude;pressure_sealevel;temperature
45850;BMP180;10739;52.198;20.908;2023-07-29T00:01:34;99549.00;;;20.20
45850;BMP180;10739;52.198;20.908;2023-07-29T00:04:02;99549.00;;;20.10
45850;BMP180;10739;52.198;20.908;2023-07-29T00:06:28;99543.00;;;20.00
45850;BMP180;10739;52.198;20.908;2023-07-29T00:08:54;99548.00;;;19.90
45850;BMP180;10739;52.198;20.908;2023-07-29T00:11:20;99554.00;;;19.90
45850;BMP180;10739;52.198;20.908;2023-07-29T00:13:46;99556.00;;;20.10
45850;BMP180;10739;52.198;20.908;2023-07-29T00:16:13;99562.00;;;19.90
45850;BMP180;10739;52.198;20.908;2023-07-29T00:18:41;99564.00;;;20.10
45850;BMP180;10739;52.198;20.908;2023-07-29T00:21:07;99561.00;;;19.90
45850;BMP180;10739;52.198;20.908;2023-07-29T00:23:34;99560.00;;;19.90
45850;BMP180;10739;52.198;20.908;2023-07-29T00:26:00;99572.00;;;19.80
45850;BMP180;10739;52.198;20.908;2023-07-29T00:28:26;99567.00;;;19.70
45850;BMP180;10739;52.198;20.908;2023-07-29T00:30:53;99575.00;;;19.70
45850;BMP180;10739;52.198;20.908;2023-07-29T00:33:19;99580.00;;;19.60
45850;BMP180;10739;52.198;20.908;2023-07-29T00:35:46;99573.00;;;19.70
45850;BMP180;10739;52.198;20.908;2023-07-29T00:38:12;99574.00;;;19.70
45850;BMP180;10739;52.198;20.908;2023-07-29T00:40:39;99571.00;;;19.90
45850;BMP180;10739;52.198;20.908;2023-07-29T00:43:05;99571.00;;;19.90
45850;BMP180;10739;52.198;20.908;2023-07-29T00:45:32;99570.00;;;20.00
45850;BMP180;10739;52.198;20.908;2023-07-29T00:48:00;99577.00;;;19.60
45850;BMP180;10739;52.198;20.908;2023-07-29T00:50:27;99574.00;;;19.50
45850;BMP180;10739;52.198;20.908;2023-07-29T00:52:56;99570.00;;;19.70
45850;BMP180;10739;52.198;20.908;2023-07-29T00:55:23;99575.00;;;19.70
45850;BMP180;10739;52.198;20.908;2023-07-29T00:57:51;99569.00;;;19.70
45850;BMP180;10739;52.198;20.908;2023-07-29T01:00:21;99576.00;;;19.80
45850;BMP180;10739;52.198;20.908;2023-07-29T01:02:47;99574.00;;;19.70
45850;BMP180;10739;52.198;20.908;2023-07-29T01:05:17;99578.00;;;19.60
45850;BMP180;10739;52.198;20.908;2023-07-29T01:08:55;99580.00;;;19.60
45850;BMP180;10739;52.198;20.908;2023-07-29T01:11:41;99585.00;;;19.70
45850;BMP180;10739;52.198;20.908;2023-07-29T01:14:55;99579.00;;;19.90
45850;BMP180;10739;52.198;20.908;2023-07-29T01:17:43;99585.00;;;19.90
45850;BMP180;10739;52.198;20.908;2023-07-29T01:20:15;99585.00;;;19.80
45850;BMP180;10739;52.198;20.908;2023-07-29T01:22:42;99588.00;;;19.90
45850;BMP180;10739;52.198;20.908;2023-07-29T01:25:09;99585.00;;;19.90
45850;BMP180;10739;52.198;20.908;2023-07-29T01:27:35;99597.00;;;19.90
45850;BMP180;10739;52.198;20.908;2023-07-29T01:30:02;99588.00;;;19.90
45850;BMP180;10739;52.198;20.908;2023-07-29T01:33:09;99587.00;;;19.70
45850;BMP180;10739;52.198;20.908;2023-07-29T01:35:46;99605.00;;;19.70
45850;BMP180;10739;52.198;20.908;2023-07-29T01:38:27;99584.00;;;19.80
45850;BMP180;10739;52.198;20.908;2023-07-29T01:40:58;99593.00;;;19.80
45850;BMP180;10739;52.198;20.908;2023-07-29T01:43:31;99601.00;;;19.70
45850;BMP180;10739;52.198;20.908;2023-07-29T01:45:58;99598.00;;;19.70
45850;BMP180;10739;52.198;20.908;2023-07-29T01:48:24;99597.00;;;19.70
45850;BMP180;10739;52.198;20.908;2023-07-29T01:50:51;99610.00;;;19.70
45850;BMP180;10739;52.198;20.908;2023-07-29T01:53:17;99607.00;;;19.90
45850;BMP180;10739;52.198;20.908;2023-07-29T01:55:44;99607.00;;;19.80
45850;BMP180;10739;52.198;20.908;2023-07-29T01:58:14;99603.00;;;19.90
45850;BMP180;10739;52.198;20.908;2023-07-29T02:01:07;99612.00;;;19.70
45850;BMP180;10739;52.198;20.908;2023-07-29T02:03:37;99611.00;;;19.80
45850;BMP180;10739;52.198;20.908;2023-07-29T02:06:05;99615.00;;;19.70
45850;BMP180;10739;52.198;20.908;2023-07-29T02:08:32;99621.00;;;19.70
45850;BMP180;10739;52.198;20.908;2023-07-29T02:10:58;99620.00;;;19.80
45850;BMP180;10739;52.198;20.908;2023-07-29T02:13:25;99619.00;;;19.70
45850;BMP180;10739;52.198;20.908;2023-07-29T02:15:51;99631.00;;;19.70
45850;BMP180;10739;52.198;20.908;2023-07-29T02:18:17;99624.00;;;19.80
45850;BMP180;10739;52.198;20.908;2023-07-29T02:20:44;99627.00;;;19.70
45850;BMP180;10739;52.198;20.908;2023-07-29T02:23:15;99621.00;;;19.60
45850;BMP180;10739;52.198;20.908;2023-07-29T02:25:43;99626.00;;;19.50
45850;BMP180;10739;52.198;20.908;2023-07-29T02:28:09;99624.00;;;19.40
45850;BMP180;10739;52.198;20.908;2023-07-29T02:30:41;99619.00;;;19.40
45850;BMP180;10739;52.198;20.908;2023-07-29T02:33:07;99624.00;;;19.50
45850;BMP180;10739;52.198;20.908;2023-07-29T02:35:33;99630.00;;;19.50
45850;BMP180;10739;52.198;20.908;2023-07-29T02:37:59;99619.00;;;19.40
45850;BMP180;10739;52.198;20.908;2023-07-29T02:40:26;99625.00;;;19.20
45850;BMP180;10739;52.198;20.908;2023-07-29T02:42:52;99621.00;;;19.20
45850;BMP180;10739;52.198;20.908;2023-07-29T02:45:18;99617.00;;;19.40
45850;BMP180;10739;52.198;20.908;2023-07-29T02:47:44;99624.00;;;19.40
45850;BMP180;10739;52.198;20.908;2023-07-29T02:50:11;99625.00;;;19.50
45850;BMP180;10739;52.198;20.908;2023-07-29T02:52:37;99635.00;;;19.40
45850;BMP180;10739;52.198;20.908;2023-07-29T02:55:03;99638.00;;;19.40
45850;BMP180;10739;52.198;20.908;2023-07-29T02:57:30;99638.00;;;19.40
45850;BMP180;10739;52.198;20.908;2023-07-29T02:59:56;99636.00;;;19.50
45850;BMP180;10739;52.198;20.908;2023-07-29T03:02:22;99643.00;;;19.40
45850;BMP180;10739;52.198;20.908;2023-07-29T03:04:48;99644.00;;;19.50
45850;BMP180;10739;52.198;20.908;2023-07-29T03:07:14;99640.00;;;19.40
45850;BMP180;10739;52.198;20.908;2023-07-29T03:09:40;99640.00;;;19.50
45850;BMP180;10739;52.198;20.908;2023-07-29T03:12:08;99648.00;;;19.50
45850;BMP180;10739;52.198;20.908;2023-07-29T03:14:34;99647.00;;;19.50
45850;BMP180;10739;52.198;20.908;2023-07-29T03:17:04;99647.00;;;19.20
45850;BMP180;10739;52.198;20.908;2023-07-29T03:19:30;99647.00;;;19.30
45850;BMP180;10739;52.198;20.908;2023-07-29T03:21:56;99647.00;;;19.30
45850;BMP180;10739;52.198;20.908;2023-07-29T03:24:22;99653.00;;;19.30
45850;BMP180;10739;52.198;20.908;2023-07-29T03:26:49;99654.00;;;19.20
45850;BMP180;10739;52.198;20.908;2023-07-29T03:29:15;99657.00;;;19.20
45850;BMP180;10739;52.198;20.908;2023-07-29T03:31:41;99657.00;;;19.10
45850;BMP180;10739;52.198;20.908;2023-07-29T03:34:07;99655.00;;;19.20
45850;BMP180;10739;52.198;20.908;2023-07-29T03:36:35;99657.00;;;19.20
45850;BMP180;10739;52.198;20.908;2023-07-29T03:39:02;99657.00;;;19.20
45850;BMP180;10739;52.198;20.908;2023-07-29T03:41:29;99660.00;;;19.10
45850;BMP180;10739;52.198;20.908;2023-07-29T03:43:56;99666.00;;;19.10
45850;BMP180;10739;52.198;20.908;2023-07-29T03:46:22;99660.00;;;19.10
45850;BMP180;10739;52.198;20.908;2023-07-29T03:48:48;99668.00;;;19.10
45850;BMP180;10739;52.198;20.908;2023-07-29T03:51:14;99665.00;;;19.10
45850;BMP180;10739;52.198;20.908;2023-07-29T03:53:41;99660.00;;;19.10
45850;BMP180;10739;52.198;20.908;2023-07-29T03:56:08;99660.00;;;19.10
45850;BMP180;10739;52.198;20.908;2023-07-29T03:58:34;99665.00;;;19.20
45850;BMP180;10739;52.198;20.908;2023-07-29T04:01:00;99668.00;;;19.20
45850;BMP180;10739;52.198;20.908;2023-07-29T04:03:26;99673.00;;;19.10
45850;BMP180;10739;52.198;20.908;2023-07-29T04:05:53;99683.00;;;19.10
45850;BMP180;10739;52.198;20.908;2023-07-29T04:08:19;99680.00;;;19.10
45850;BMP180;10739;52.198;20.908;2023-07-29T04:10:45;99677.00;;;19.20
45850;BMP180;10739;52.198;20.908;2023-07-29T04:13:11;99676.00;;;19.10
45850;BMP180;10739;52.198;20.908;2023-07-29T04:15:37;99675.00;;;19.20
45850;BMP180;10739;52.198;20.908;2023-07-29T04:18:03;99676.00;;;19.20
45850;BMP180;10739;52.198;20.908;2023-07-29T04:20:30;99683.00;;;19.30
45850;BMP180;10739;52.198;20.908;2023-07-29T04:22:56;99686.00;;;19.20
45850;BMP180;10739;52.198;20.908;2023-07-29T04:25:22;99700.00;;;19.10
45850;BMP180;10739;52.198;20.908;2023-07-29T04:27:49;99693.00;;;19.00
45850;BMP180;10739;52.198;20.908;2023-07-29T04:30:15;99694.00;;;19.10
45850;BMP180;10739;52.198;20.908;2023-07-29T04:32:41;99698.00;;;19.30
45850;BMP180;10739;52.198;20.908;2023-07-29T04:35:10;99701.00;;;19.20
45850;BMP180;10739;52.198;20.908;2023-07-29T04:37:37;99702.00;;;19.00
45850;BMP180;10739;52.198;20.908;2023-07-29T04:40:03;99705.00;;;19.00
45850;BMP180;10739;52.198;20.908;2023-07-29T04:42:29;99709.00;;;19.10
45850;BMP180;10739;52.198;20.908;2023-07-29T04:44:55;99714.00;;;19.30
45850;BMP180;10739;52.198;20.908;2023-07-29T04:47:21;99709.00;;;18.90
45850;BMP180;10739;52.198;20.908;2023-07-29T04:49:47;99719.00;;;18.90
45850;BMP180;10739;52.198;20.908;2023-07-29T04:52:14;99724.00;;;18.80
45850;BMP180;10739;52.198;20.908;2023-07-29T04:54:41;99726.00;;;18.90
45850;BMP180;10739;52.198;20.908;2023-07-29T04:57:07;99727.00;;;18.90
45850;BMP180;10739;52.198;20.908;2023-07-29T04:59:33;99731.00;;;19.10
45850;BMP180;10739;52.198;20.908;2023-07-29T05:01:59;99721.00;;;19.10
45850;BMP180;10739;52.198;20.908;2023-07-29T05:04:25;99732.00;;;19.50
45850;BMP180;10739;52.198;20.908;2023-07-29T05:06:51;99732.00;;;19.50
45850;BMP180;10739;52.198;20.908;2023-07-29T05:09:19;99734.00;;;19.60
45850;BMP180;10739;52.198;20.908;2023-07-29T05:11:48;99735.00;;;19.80
45850;BMP180;10739;52.198;20.908;2023-07-29T05:14:17;99734.00;;;19.80
45850;BMP180;10739;52.198;20.908;2023-07-29T05:16:44;99734.00;;;19.90
45850;BMP180;10739;52.198;20.908;2023-07-29T05:19:10;99739.00;;;19.80
45850;BMP180;10739;52.198;20.908;2023-07-29T05:21:37;99733.00;;;19.70
45850;BMP180;10739;52.198;20.908;2023-07-29T05:24:04;99737.00;;;19.60
45850;BMP180;10739;52.198;20.908;2023-07-29T05:26:31;99735.00;;;19.70
45850;BMP180;10739;52.198;20.908;2023-07-29T05:28:57;99742.00;;;19.70
45850;BMP180;10739;52.198;20.908;2023-07-29T05:31:23;99741.00;;;19.60
45850;BMP180;10739;52.198;20.908;2023-07-29T05:33:49;99741.00;;;19.70
45850;BMP180;10739;52.198;20.908;2023-07-29T05:36:15;99738.00;;;20.10
45850;BMP180;10739;52.198;20.908;2023-07-29T05:38:42;99736.00;;;20.30
45850;BMP180;10739;52.198;20.908;2023-07-29T05:41:08;99737.00;;;20.20
45850;BMP180;10739;52.198;20.908;2023-07-29T05:43:34;99740.00;;;20.10
45850;BMP180;10739;52.198;20.908;2023-07-29T05:46:01;99735.00;;;20.30
45850;BMP180;10739;52.198;20.908;2023-07-29T05:48:27;99742.00;;;19.90
45850;BMP180;10739;52.198;20.908;2023-07-29T05:50:54;99741.00;;;20.20
45850;BMP180;10739;52.198;20.908;2023-07-29T05:53:20;99753.00;;;20.40
45850;BMP180;10739;52.198;20.908;2023-07-29T05:55:46;99754.00;;;20.50
45850;BMP180;10739;52.198;20.908;2023-07-29T05:58:12;99746.00;;;20.40
45850;BMP180;10739;52.198;20.908;2023-07-29T06:00:38;99755.00;;;20.30
45850;BMP180;10739;52.198;20.908;2023-07-29T06:03:05;99761.00;;;20.40
45850;BMP180;10739;52.198;20.908;2023-07-29T06:05:31;99768.00;;;20.30
45850;BMP180;10739;52.198;20.908;2023-07-29T06:07:57;99772.00;;;20.40
45850;BMP180;10739;52.198;20.908;2023-07-29T06:10:23;99768.00;;;20.40
45850;BMP180;10739;52.198;20.908;2023-07-29T06:12:49;99773.00;;;20.70
45850;BMP180;10739;52.198;20.908;2023-07-29T06:15:16;99768.00;;;20.70
45850;BMP180;10739;52.198;20.908;2023-07-29T06:17:42;99780.00;;;20.80
45850;BMP180;10739;52.198;20.908;2023-07-29T06:20:08;99783.00;;;20.90
45850;BMP180;10739;52.198;20.908;2023-07-29T06:22:35;99788.00;;;20.90
45850;BMP180;10739;52.198;20.908;2023-07-29T06:25:01;99778.00;;;20.70
45850;BMP180;10739;52.198;20.908;2023-07-29T06:27:27;99789.00;;;20.70
45850;BMP180;10739;52.198;20.908;2023-07-29T06:29:53;99788.00;;;20.70
45850;BMP180;10739;52.198;20.908;2023-07-29T06:32:20;99789.00;;;20.80
45850;BMP180;10739;52.198;20.908;2023-07-29T06:34:46;99794.00;;;20.80
45850;BMP180;10739;52.198;20.908;2023-07-29T06:37:12;99793.00;;;20.70
45850;BMP180;10739;52.198;20.908;2023-07-29T06:39:38;99803.00;;;20.60
45850;BMP180;10739;52.198;20.908;2023-07-29T06:42:05;99801.00;;;20.90
45850;BMP180;10739;52.198;20.908;2023-07-29T06:44:32;99802.00;;;20.90
45850;BMP180;10739;52.198;20.908;2023-07-29T06:46:58;99809.00;;;20.90
45850;BMP180;10739;52.198;20.908;2023-07-29T06:49:24;99798.00;;;21.20
45850;BMP180;10739;52.198;20.908;2023-07-29T06:51:50;99794.00;;;20.70
45850;BMP180;10739;52.198;20.908;2023-07-29T06:54:17;99801.00;;;20.70
45850;BMP180;10739;52.198;20.908;2023-07-29T06:56:43;99801.00;;;20.90
45850;BMP180;10739;52.198;20.908;2023-07-29T06:59:09;99801.00;;;20.90
45850;BMP180;10739;52.198;20.908;2023-07-29T07:01:36;99793.00;;;21.20
45850;BMP180;10739;52.198;20.908;2023-07-29T07:04:02;99798.00;;;21.50
45850;BMP180;10739;52.198;20.908;2023-07-29T07:06:28;99796.00;;;21.80
45850;BMP180;10739;52.198;20.908;2023-07-29T07:08:54;99803.00;;;21.80
45850;BMP180;10739;52.198;20.908;2023-07-29T07:11:20;99802.00;;;21.50
45850;BMP180;10739;52.198;20.908;2023-07-29T07:13:47;99794.00;;;22.30
45850;BMP180;10739;52.198;20.908;2023-07-29T07:16:13;99794.00;;;22.60
45850;BMP180;10739;52.198;20.908;2023-07-29T07:18:39;99794.00;;;22.80
45850;BMP180;10739;52.198;20.908;2023-07-29T07:21:06;99794.00;;;22.20
45850;BMP180;10739;52.198;20.908;2023-07-29T07:23:32;99791.00;;;22.30
45850;BMP180;10739;52.198;20.908;2023-07-29T07:25:58;99790.00;;;22.30
45850;BMP180;10739;52.198;20.908;2023-07-29T07:28:24;99787.00;;;22.10
45850;BMP180;10739;52.198;20.908;2023-07-29T07:30:51;99786.00;;;22.10
45850;BMP180;10739;52.198;20.908;2023-07-29T07:33:17;99788.00;;;22.00
45850;BMP180;10739;52.198;20.908;2023-07-29T07:35:43;99789.00;;;22.00
45850;BMP180;10739;52.198;20.908;2023-07-29T07:38:10;99785.00;;;22.50
45850;BMP180;10739;52.198;20.908;2023-07-29T07:40:36;99791.00;;;22.50
45850;BMP180;10739;52.198;20.908;2023-07-29T07:43:02;99787.00;;;22.80
45850;BMP180;10739;52.198;20.908;2023-07-29T07:45:29;99788.00;;;23.00
45850;BMP180;10739;52.198;20.908;2023-07-29T07:47:56;99796.00;;;23.40
45850;BMP180;10739;52.198;20.908;2023-07-29T07:50:22;99789.00;;;23.40
45850;BMP180;10739;52.198;20.908;2023-07-29T07:52:50;99793.00;;;22.80
45850;BMP180;10739;52.198;20.908;2023-07-29T07:55:16;99784.00;;;23.10
45850;BMP180;10739;52.198;20.908;2023-07-29T07:57:42;99790.00;;;23.30
45850;BMP180;10739;52.198;20.908;2023-07-29T08:00:09;99791.00;;;23.40
45850;BMP180;10739;52.198;20.908;2023-07-29T08:02:36;99793.00;;;23.60
45850;BMP180;10739;52.198;20.908;2023-07-29T08:05:02;99788.00;;;23.60
45850;BMP180;10739;52.198;20.908;2023-07-29T08:07:28;99783.00;;;23.40
45850;BMP180;10739;52.198;20.908;2023-07-29T08:09:54;99788.00;;;23.70
45850;BMP180;10739;52.198;20.908;2023-07-29T08:12:21;99785.00;;;23.90
45850;BMP180;10739;52.198;20.908;2023-07-29T08:14:47;99787.00;;;24.30
45850;BMP180;10739;52.198;20.908;2023-07-29T08:17:13;99787.00;;;24.80
45850;BMP180;10739;52.198;20.908;2023-07-29T08:19:39;99786.00;;;24.20
45850;BMP180;10739;52.198;20.908;2023-07-29T08:22:05;99785.00;;;24.20
45850;BMP180;10739;52.198;20.908;2023-07-29T08:24:32;99785.00;;;24.40
45850;BMP180;10739;52.198;20.908;2023-07-29T08:26:58;99773.00;;;24.60
45850;BMP180;10739;52.198;20.908;2023-07-29T08:29:24;99773.00;;;24.90
45850;BMP180;10739;52.198;20.908;2023-07-29T08:31:50;99773.00;;;25.30
45850;BMP180;10739;52.198;20.908;2023-07-29T08:34:17;99779.00;;;25.20
45850;BMP180;10739;52.198;20.908;2023-07-29T08:36:44;99777.00;;;25.00
45850;BMP180;10739;52.198;20.908;2023-07-29T08:39:10;99763.00;;;25.10
45850;BMP180;10739;52.198;20.908;2023-07-29T08:42:01;99767.00;;;25.60
45850;BMP180;10739;52.198;20.908;2023-07-29T08:44:39;99766.00;;;26.00
45850;BMP180;10739;52.198;20.908;2023-07-29T08:47:06;99774.00;;;26.40
45850;BMP180;10739;52.198;20.908;2023-07-29T08:49:34;99773.00;;;26.30
45850;BMP180;10739;52.198;20.908;2023-07-29T08:52:01;99765.00;;;25.70
45850;BMP180;10739;52.198;20.908;2023-07-29T08:54:28;99771.00;;;25.50
45850;BMP180;10739;52.198;20.908;2023-07-29T08:56:54;99781.00;;;25.80
45850;BMP180;10739;52.198;20.908;2023-07-29T08:59:21;99776.00;;;25.60
45850;BMP180;10739;52.198;20.908;2023-07-29T09:01:48;99775.00;;;25.70
45850;BMP180;10739;52.198;20.908;2023-07-29T09:04:15;99771.00;;;26.00
45850;BMP180;10739;52.198;20.908;2023-07-29T09:06:44;99766.00;;;26.60
45850;BMP180;10739;52.198;20.908;2023-07-29T09:09:12;99772.00;;;26.70
45850;BMP180;10739;52.198;20.908;2023-07-29T09:11:38;99769.00;;;27.00
45850;BMP180;10739;52.198;20.908;2023-07-29T09:14:04;99763.00;;;27.20
45850;BMP180;10739;52.198;20.908;2023-07-29T09:16:32;99765.00;;;26.70
45850;BMP180;10739;52.198;20.908;2023-07-29T09:19:02;99773.00;;;26.20
45850;BMP180;10739;52.198;20.908;2023-07-29T09:21:29;99772.00;;;26.10
45850;BMP180;10739;52.198;20.908;2023-07-29T09:23:56;99760.00;;;26.30
45850;BMP180;10739;52.198;20.908;2023-07-29T09:26:27;99766.00;;;26.20
45850;BMP180;10739;52.198;20.908;2023-07-29T09:28:55;99761.00;;;26.60
45850;BMP180;10739;52.198;20.908;2023-07-29T09:31:24;99759.00;;;27.10
45850;BMP180;10739;52.198;20.908;2023-07-29T09:34:00;99765.00;;;27.60
45850;BMP180;10739;52.198;20.908;2023-07-29T09:36:27;99755.00;;;27.90
45850;BMP180;10739;52.198;20.908;2023-07-29T09:38:57;99759.00;;;28.00
45850;BMP180;10739;52.198;20.908;2023-07-29T09:41:25;99765.00;;;27.70
45850;BMP180;10739;52.198;20.908;2023-07-29T09:44:00;99762.00;;;27.60
45850;BMP180;10739;52.198;20.908;2023-07-29T09:46:36;99767.00;;;28.40
45850;BMP180;10739;52.198;20.908;2023-07-29T09:49:06;99763.00;;;28.50
45850;BMP180;10739;52.198;20.908;2023-07-29T09:51:38;99751.00;;;28.60
45850;BMP180;10739;52.198;20.908;2023-07-29T09:54:05;99756.00;;;28.90
45850;BMP180;10739;52.198;20.908;2023-07-29T09:56:33;99746.00;;;29.30
45850;BMP180;10739;52.198;20.908;2023-07-29T09:59:00;99749.00;;;29.10
45850;BMP180;10739;52.198;20.908;2023-07-29T10:01:26;99748.00;;;28.90
45850;BMP180;10739;52.198;20.908;2023-07-29T10:03:53;99749.00;;;28.70
45850;BMP180;10739;52.198;20.908;2023-07-29T10:06:22;99737.00;;;29.40
45850;BMP180;10739;52.198;20.908;2023-07-29T10:08:50;99740.00;;;29.80
45850;BMP180;10739;52.198;20.908;2023-07-29T10:11:18;99734.00;;;30.50
45850;BMP180;10739;52.198;20.908;2023-07-29T10:13:48;99746.00;;;30.50
45850;BMP180;10739;52.198;20.908;2023-07-29T10:16:15;99741.00;;;30.50
45850;BMP180;10739;52.198;20.908;2023-07-29T10:18:42;99740.00;;;30.70
45850;BMP180;10739;52.198;20.908;2023-07-29T10:21:12;99751.00;;;30.40
45850;BMP180;10739;52.198;20.908;2023-07-29T10:23:47;99744.00;;;30.20
45850;BMP180;10739;52.198;20.908;2023-07-29T10:26:20;99745.00;;;31.00
45850;BMP180;10739;52.198;20.908;2023-07-29T10:28:48;99744.00;;;30.80
45850;BMP180;10739;52.198;20.908;2023-07-29T10:31:16;99741.00;;;31.40
45850;BMP180;10739;52.198;20.908;2023-07-29T10:33:44;99738.00;;;30.40
45850;BMP180;10739;52.198;20.908;2023-07-29T10:36:12;99745.00;;;30.30
45850;BMP180;10739;52.198;20.908;2023-07-29T10:38:38;99751.00;;;30.90
45850;BMP180;10739;52.198;20.908;2023-07-29T10:41:05;99746.00;;;30.40
45850;BMP180;10739;52.198;20.908;2023-07-29T10:43:36;99742.00;;;30.00
45850;BMP180;10739;52.198;20.908;2023-07-29T10:46:21;99740.00;;;29.30
45850;BMP180;10739;52.198;20.908;2023-07-29T10:51:29;99731.00;;;28.50
45850;BMP180;10739;52.198;20.908;2023-07-29T10:54:09;99726.00;;;29.80
45850;BMP180;10739;52.198;20.908;2023-07-29T10:56:39;99726.00;;;31.40
45850;BMP180;10739;52.198;20.908;2023-07-29T11:01:41;99731.00;;;31.50
45850;BMP180;10739;52.198;20.908;2023-07-29T11:17:40;99719.00;;;31.10
45850;BMP180;10739;52.198;20.908;2023-07-29T11:20:07;99718.00;;;31.80
45850;BMP180;10739;52.198;20.908;2023-07-29T11:22:35;99712.00;;;31.70
45850;BMP180;10739;52.198;20.908;2023-07-29T11:25:01;99709.00;;;32.40
45850;BMP180;10739;52.198;20.908;2023-07-29T11:27:28;99702.00;;;32.30
45850;BMP180;10739;52.198;20.908;2023-07-29T11:30:12;99701.00;;;32.60
45850;BMP180;10739;52.198;20.908;2023-07-29T11:32:41;99695.00;;;33.30
45850;BMP180;10739;52.198;20.908;2023-07-29T11:35:15;99688.00;;;34.00
45850;BMP180;10739;52.198;20.908;2023-07-29T11:37:45;99686.00;;;35.40
45850;BMP180;10739;52.198;20.908;2023-07-29T11:40:20;99695.00;;;35.70
45850;BMP180;10739;52.198;20.908;2023-07-29T11:42:48;99679.00;;;34.70
45850;BMP180;10739;52.198;20.908;2023-07-29T11:45:16;99693.00;;;34.00
45850;BMP180;10739;52.198;20.908;2023-07-29T11:47:43;99687.00;;;31.60
45850;BMP180;10739;52.198;20.908;2023-07-29T11:50:12;99675.00;;;32.60
45850;BMP180;10739;52.198;20.908;2023-07-29T11:52:43;99674.00;;;33.80
45850;BMP180;10739;52.198;20.908;2023-07-29T11:55:10;99672.00;;;34.30
45850;BMP180;10739;52.198;20.908;2023-07-29T11:57:39;99676.00;;;35.80
45850;BMP180;10739;52.198;20.908;2023-07-29T12:00:08;99685.00;;;34.90
45850;BMP180;10739;52.198;20.908;2023-07-29T12:02:41;99665.00;;;35.00
45850;BMP180;10739;52.198;20.908;2023-07-29T12:05:10;99670.00;;;36.10
45850;BMP180;10739;52.198;20.908;2023-07-29T12:07:43;99668.00;;;34.50
45850;BMP180;10739;52.198;20.908;2023-07-29T12:10:11;99662.00;;;34.70
45850;BMP180;10739;52.198;20.908;2023-07-29T12:12:48;99658.00;;;35.60
45850;BMP180;10739;52.198;20.908;2023-07-29T12:15:27;99662.00;;;35.20
45850;BMP180;10739;52.198;20.908;2023-07-29T12:17:55;99663.00;;;34.30
45850;BMP180;10739;52.198;20.908;2023-07-29T12:20:23;99666.00;;;34.80
45850;BMP180;10739;52.198;20.908;2023-07-29T12:22:57;99659.00;;;34.90
45850;BMP180;10739;52.198;20.908;2023-07-29T12:25:26;99652.00;;;35.40
45850;BMP180;10739;52.198;20.908;2023-07-29T12:27:52;99650.00;;;35.10
45850;BMP180;10739;52.198;20.908;2023-07-29T12:30:22;99645.00;;;34.40
45850;BMP180;10739;52.198;20.908;2023-07-29T12:32:49;99650.00;;;35.70
45850;BMP180;10739;52.198;20.908;2023-07-29T12:35:15;99644.00;;;36.70
45850;BMP180;10739;52.198;20.908;2023-07-29T12:37:41;99644.00;;;36.00
45850;BMP180;10739;52.198;20.908;2023-07-29T12:40:23;99642.00;;;35.40
45850;BMP180;10739;52.198;20.908;2023-07-29T12:42:50;99636.00;;;36.20
45850;BMP180;10739;52.198;20.908;2023-07-29T12:45:18;99644.00;;;35.90
45850;BMP180;10739;52.198;20.908;2023-07-29T12:47:45;99644.00;;;35.90
45850;BMP180;10739;52.198;20.908;2023-07-29T12:50:11;99641.00;;;36.60
45850;BMP180;10739;52.198;20.908;2023-07-29T12:52:37;99641.00;;;37.00
45850;BMP180;10739;52.198;20.908;2023-07-29T12:55:05;99641.00;;;36.80
45850;BMP180;10739;52.198;20.908;2023-07-29T12:57:31;99639.00;;;37.00
45850;BMP180;10739;52.198;20.908;2023-07-29T12:59:57;99633.00;;;37.60
45850;BMP180;10739;52.198;20.908;2023-07-29T13:02:23;99627.00;;;37.60
45850;BMP180;10739;52.198;20.908;2023-07-29T13:04:50;99633.00;;;37.30
45850;BMP180;10739;52.198;20.908;2023-07-29T13:07:16;99639.00;;;37.10
45850;BMP180;10739;52.198;20.908;2023-07-29T13:09:42;99637.00;;;37.70
45850;BMP180;10739;52.198;20.908;2023-07-29T13:12:08;99626.00;;;38.00
45850;BMP180;10739;52.198;20.908;2023-07-29T13:14:34;99623.00;;;38.20
45850;BMP180;10739;52.198;20.908;2023-07-29T13:17:00;99624.00;;;37.40
45850;BMP180;10739;52.198;20.908;2023-07-29T13:19:27;99627.00;;;36.90
45850;BMP180;10739;52.198;20.908;2023-07-29T13:21:53;99627.00;;;36.10
45850;BMP180;10739;52.198;20.908;2023-07-29T13:24:19;99621.00;;;36.10
45850;BMP180;10739;52.198;20.908;2023-07-29T13:26:45;99625.00;;;37.20
45850;BMP180;10739;52.198;20.908;2023-07-29T13:29:12;99620.00;;;37.20
45850;BMP180;10739;52.198;20.908;2023-07-29T13:31:37;99613.00;;;36.20
45850;BMP180;10739;52.198;20.908;2023-07-29T13:34:03;99615.00;;;37.00
45850;BMP180;10739;52.198;20.908;2023-07-29T13:36:30;99610.00;;;36.20
45850;BMP180;10739;52.198;20.908;2023-07-29T13:38:56;99603.00;;;35.80
45850;BMP180;10739;52.198;20.908;2023-07-29T13:41:23;99602.00;;;36.70
45850;BMP180;10739;52.198;20.908;2023-07-29T13:43:51;99601.00;;;36.90
45850;BMP180;10739;52.198;20.908;2023-07-29T13:46:24;99591.00;;;36.90
45850;BMP180;10739;52.198;20.908;2023-07-29T13:48:51;99597.00;;;37.80
45850;BMP180;10739;52.198;20.908;2023-07-29T13:51:17;99601.00;;;37.30
45850;BMP180;10739;52.198;20.908;2023-07-29T13:53:43;99580.00;;;38.20
45850;BMP180;10739;52.198;20.908;2023-07-29T13:56:10;99582.00;;;37.40
45850;BMP180;10739;52.198;20.908;2023-07-29T13:58:36;99586.00;;;38.10
45850;BMP180;10739;52.198;20.908;2023-07-29T14:01:02;99580.00;;;36.70
45850;BMP180;10739;52.198;20.908;2023-07-29T14:03:29;99584.00;;;37.10
45850;BMP180;10739;52.198;20.908;2023-07-29T14:05:55;99579.00;;;36.50
45850;BMP180;10739;52.198;20.908;2023-07-29T14:08:21;99571.00;;;35.40
45850;BMP180;10739;52.198;20.908;2023-07-29T14:10:49;99569.00;;;36.80
45850;BMP180;10739;52.198;20.908;2023-07-29T14:13:15;99576.00;;;35.30
45850;BMP180;10739;52.198;20.908;2023-07-29T14:15:41;99568.00;;;35.40
45850;BMP180;10739;52.198;20.908;2023-07-29T14:18:08;99560.00;;;35.80
45850;BMP180;10739;52.198;20.908;2023-07-29T14:20:34;99563.00;;;35.40